Duck Lake, Michigan
Current Conditions -  °F | °C
As of 8:15 AM on Thursday 27 Nov 2014 (Local Time) from KFPK Reporting Station
Broken Clouds Broken Clouds  
Wind Chill: 24°   Ceiling: 4700
Heat Index: 29°   Visibility: 7mi
Dew Point: 23°   Wind: 5mph
Humidity: 79%   Direction: 270°W
Pressure: 30.14"   Gusts: NA
Location:  42.3865°N, 84.6975°W
Report Text: KFPK 271315Z AUTO 27004KT 7SM SCT030 BKN047 BKN075 M02/M05 A3014 RMK AO2 T10161048
Loading
Personal Weather Stations






























Interactive Weather Map New forecast layout! Learn more

10-Day Weather Forecast

Advertisements
Track Severe Weather on mobile